Gambell, AK

12:19 AM AKDT on August 31, 2014 (GMT -0800)
Tin City LRRS | Change Station
CLOSE
Current Station
Airport
Location: Tin City,
Elevation: 272 ft
Nearby Weather Stations

Elev 272 ft 65.56 °N, 167.92 °W | Updated 5 minutes ago

Light Drizzle
Light Drizzle
43 °F
Feels Like 43 °F
N
1
Wind Variable Wind from NNE

Today
High -- | Low -- °F
--% Chance of Precip.
Yesterday
High -- | Low -- °F
Precip. -- in
8:08 AM 10:41 PM
Waxing Crescent, 29% visible
Pressure 29.74 in
Visibility 10.0 miles
Clouds Scattered Clouds 2800 ft
Mostly Cloudy 5000 ft
Dew Point 39 °F
Humidity 87%
Rainfall 0.00 in
Snow Depth Not available.
UV 0 out of 12
Pollen Not available.
Air Quality Not available.
Flu Activity Not available.
SPECI PATC 310814Z AUTO 02001KT 10SM -DZ SCT028 BKN050 06/04 A2974 RMK AO2 SLP071

More Conditions Fewer Conditions

Pressure 29.74 in
Visibility 10.0 miles
Clouds Scattered Clouds 2800 ft
Mostly Cloudy 5000 ft
Dew Point 39 °F
Humidity 87%
Rainfall 0.00 in
Snow Depth Not available.
UV 0 out of 12
Pollen Not available.
Air Quality Not available.
Flu Activity Not available.
SPECI PATC 310814Z AUTO 02001KT 10SM -DZ SCT028 BKN050 06/04 A2974 RMK AO2 SLP071

More Conditions Fewer Conditions

10-Day Weather Forecast

Almanac

Astronomy

Aug. 31, 2014 Rise Set
Actual Time 8:08 AM AKDT 10:41 PM AKDT
Civil Twilight 7:16 AM AKDT 11:33 PM AKDT
Nautical Twilight 6:03 AM AKDT 12:44 AM AKDT
Astronomical Twilight 3:58 AM AKDT 2:52 AM AKDT
Moon 4:17 PM AKDT 11:54 PM AKDT
Length of Visible Light 16h 17m
Length of Day
14h 33m
Tomorrow will be 6m 18s shorter.
Waxing Crescent, 29% of the Moon is Illuminated
Today
Waxing Crescent
Sep 2
First Quarter
Sep 8
Full
Sep 15
Last Quarter
Sep 24
New

Community

WunderPhotos

Upload Photos

1,748,820 photos uploaded!

Nearby

Snow Depth

Station Depth Elevation
Rocky Point 4 in 500 ft
Gobblers Knob 0 in 2030 ft
Coldfoot 0 in 1040 ft
Susitna Valley High 2 in 375 ft
Mcneil Canyon 1 in 1320 ft

Earthquake Activity

City Distance Mag. Time & Date
No recent earthquake activity has been reported nearby.
Minimum magnitude displayed is 2.5.

Coastal Water Temperatures

Place Temperature
No Stations Reporting

Nearby Weather Stations